Time;durP1;ratioP1;P1;durP2;ratioP2;P2;SDS_P1;SDS_P2;PMS_P1;PMS_P2;Temp;Humidity;BMP_temperature;BMP_pressure;BME280_temperature;BME280_humidity;BME280_pressure;Samples;Min_cycle;Max_cycle;Signal;HPM_P1;HPM_P2
2021/09/06 00:00:24;;;;;;;0.70;0.60;;;;;;;15.28;100.00;33305.50;6275894;22;20420;-71
2021/09/06 00:02:52;;;;;;;0.70;0.60;;;;;;;15.22;100.00;32635.28;6276405;22;20424;-71
2021/09/06 00:05:20;;;;;;;0.70;0.60;;;;;;;15.18;100.00;31917.78;6275804;22;20982;-71
2021/09/06 00:07:47;;;;;;;0.80;0.70;;;;;;;15.14;100.00;31158.94;6248989;22;20486;-71
2021/09/06 00:10:29;;;;;;;0.70;0.60;;;;;;;15.08;100.00;30740.59;6276256;22;20402;-72
2021/09/06 00:12:56;;;;;;;0.70;0.70;;;;;;;15.05;100.00;30075.00;6277111;22;20874;-72
2021/09/06 00:15:24;;;;;;;0.70;0.60;;;;;;;15.03;100.00;29551.31;6275604;22;20429;-71
2021/09/06 00:17:53;;;;;;;0.70;0.60;;;;;;;15.01;100.00;28974.25;6224603;22;20488;-71
2021/09/06 00:20:23;;;;;;;0.70;0.60;;;;;;;15.03;100.00;28434.75;6277405;22;20383;-71
2021/09/06 00:22:50;;;;;;;0.70;0.70;;;;;;;15.00;100.00;27880.44;6276749;22;20439;-71
2021/09/06 00:25:17;;;;;;;2.10;1.20;;;;;;;14.96;100.00;27333.13;6274786;22;20786;-73
2021/09/06 00:27:45;;;;;;;0.70;0.60;;;;;;;14.93;100.00;26650.91;6249505;22;20375;-71
2021/09/06 00:30:12;;;;;;;0.70;0.60;;;;;;;14.91;100.00;26302.19;6249013;22;20763;-72
2021/09/06 00:32:40;;;;;;;0.70;0.60;;;;;;;14.87;100.00;25619.50;6249735;22;20852;-72
2021/09/06 00:35:09;;;;;;;0.70;0.60;;;;;;;14.83;100.00;24942.44;6251583;22;20401;-72
2021/09/06 00:37:41;;;;;;;2.60;0.97;;;;;;;14.80;100.00;24389.00;6278360;22;20729;-72
2021/09/06 00:40:09;;;;;;;0.70;0.60;;;;;;;14.88;100.00;24070.63;6278452;22;20384;-72
2021/09/06 00:42:37;;;;;;;0.70;0.70;;;;;;;14.86;100.00;23604.22;6249877;22;20396;-72
2021/09/06 00:45:05;;;;;;;0.80;0.70;;;;;;;14.82;100.00;23132.13;6250141;22;20419;-72
2021/09/06 00:47:34;;;;;;;0.70;0.60;;;;;;;14.77;100.00;22511.56;6225694;22;20403;-71
2021/09/06 00:50:08;;;;;;;0.70;0.60;;;;;;;14.75;100.00;22102.16;6250745;22;20421;-73
2021/09/06 00:52:39;;;;;;;1.53;1.43;;;;;;;14.72;100.00;21661.75;6251304;22;20408;-72
2021/09/06 00:55:08;;;;;;;0.70;0.60;;;;;;;14.69;100.00;21282.31;6226010;22;20405;-72
2021/09/06 00:57:37;;;;;;;0.70;0.60;;;;;;;14.65;100.00;20744.47;6278725;22;20414;-73
2021/09/06 01:00:07;;;;;;;0.80;0.70;;;;;;;14.61;100.00;20196.56;6277059;22;20415;-72
2021/09/06 01:02:41;;;;;;;0.70;0.60;;;;;;;14.60;100.00;19734.22;6253103;22;20429;-72
2021/09/06 01:05:11;;;;;;;2.50;1.63;;;;;;;14.64;100.00;19442.28;6284793;22;20689;-72
2021/09/06 01:07:59;;;;;;;0.70;0.60;;;;;;;14.67;100.00;19088.72;6278644;22;20423;-74
2021/09/06 01:11:05;;;;;;;1.23;1.13;;;;;;;14.66;100.00;18646.91;6230812;22;20433;-72
2021/09/06 01:13:50;;;;;;;0.70;0.57;;;;;;;14.81;100.00;18547.72;6278025;22;20425;-72
2021/09/06 01:16:22;;;;;;;0.80;0.80;;;;;;;14.73;100.00;17567.97;6224641;22;20407;-72
2021/09/06 01:18:50;;;;;;;1.63;1.53;;;;;;;14.67;100.00;16805.63;6276542;22;20378;-72
2021/09/06 01:21:17;;;;;;;0.90;0.70;;;;;;;14.59;100.00;16109.41;6250461;22;20493;-72
2021/09/06 01:24:02;;;;;;;0.70;0.60;;;;;;;14.49;100.00;15329.13;6229214;22;20420;-72
2021/09/06 01:26:34;;;;;;;0.70;0.60;;;;;;;14.50;100.00;14832.41;6250779;22;20518;-72
2021/09/06 01:29:06;;;;;;;0.70;0.60;;;;;;;14.53;100.00;14626.81;6249924;22;20408;-72
2021/09/06 01:31:35;;;;;;;0.70;0.70;;;;;;;14.53;100.00;14130.16;6250525;22;20407;-72
2021/09/06 01:34:02;;;;;;;0.70;0.60;;;;;;;14.57;100.00;13667.59;6248661;22;20905;-72
2021/09/06 01:36:29;;;;;;;0.70;0.60;;;;;;;14.59;100.00;13148.56;6223607;22;20406;-73
2021/09/06 01:38:58;;;;;;;0.70;0.60;;;;;;;14.53;100.00;12357.47;6249920;22;20457;-71
2021/09/06 01:41:29;;;;;;;2.47;2.30;;;;;;;14.41;100.00;11550.16;6226031;22;20858;-72
2021/09/06 01:44:00;;;;;;;0.80;0.80;;;;;;;14.26;100.00;10711.84;6249971;22;20407;-72
2021/09/06 01:46:28;;;;;;;0.70;0.60;;;;;;;14.24;100.00;9874.63;6225284;22;20920;-72
2021/09/06 01:48:57;;;;;;;0.83;0.77;;;;;;;14.14;100.00;8817.31;6250976;22;20438;-72
2021/09/06 01:51:25;;;;;;;0.80;0.70;;;;;;;14.07;100.00;8038.31;6250144;22;20446;-72
2021/09/06 01:53:53;;;;;;;0.70;0.60;;;;;;;13.99;100.00;7102.03;6276782;22;20456;-73
2021/09/06 01:56:21;;;;;;;0.70;0.60;;;;;;;14.00;100.00;6144.72;6249594;22;20406;-72
2021/09/06 01:58:48;;;;;;;0.70;0.60;;;;;;;14.06;100.00;4954.97;6249212;22;20845;-72
2021/09/06 02:01:19;;;;;;;0.70;0.60;;;;;;;14.04;100.00;3764.31;6225393;22;20407;-72
2021/09/06 02:03:47;;;;;;;0.70;0.60;;;;;;;14.01;100.00;2602.09;6250982;22;20398;-72
2021/09/06 02:06:16;;;;;;;0.70;0.60;;;;;;;13.97;100.00;1716.66;6250474;22;20435;-73
2021/09/06 02:08:54;;;;;;;0.70;0.60;;;;;;;13.92;100.00;778.22;6250545;22;20505;-72
2021/09/06 02:11:26;;;;;;;0.70;0.60;;;;;;;13.90;100.00;-98.81;6249844;22;20396;-72
2021/09/06 02:13:55;;;;;;;0.70;0.60;;;;;;;13.87;100.00;-955.31;6250344;22;20403;-72
2021/09/06 02:16:23;;;;;;;0.70;0.60;;;;;;;13.83;100.00;-2940.78;6224372;22;20391;-72
2021/09/06 02:18:53;;;;;;;0.80;0.80;;;;;;;13.75;100.00;-4089.84;6249358;22;20881;-71
2021/09/06 02:21:21;;;;;;;0.70;0.60;;;;;;;13.71;100.00;-4934.78;6250760;22;20415;-73
2021/09/06 02:23:59;;;;;;;0.70;0.60;;;;;;;13.71;100.00;-5900.88;6250878;22;20476;-72
2021/09/06 02:26:27;;;;;;;0.80;0.80;;;;;;;13.67;100.00;-6785.63;6250109;22;20430;-72
2021/09/06 02:28:54;;;;;;;2.67;1.43;;;;;;;13.67;100.00;-7523.66;6250558;22;20413;-73
2021/09/06 02:31:23;;;;;;;0.70;0.60;;;;;;;13.61;100.00;-8379.84;6276350;22;20387;-72
2021/09/06 02:34:15;;;;;;;0.70;0.57;;;;;;;13.59;100.00;-9321.88;6249468;22;20407;-72
2021/09/06 02:36:44;;;;;;;0.70;0.60;;;;;;;13.60;100.00;-9814.38;6250442;22;20703;-73
2021/09/06 02:39:12;;;;;;;0.70;0.60;;;;;;;13.60;100.00;-10582.00;6250460;22;20430;-73
2021/09/06 02:41:40;;;;;;;0.70;0.60;;;;;;;13.57;100.00;-11295.97;6225264;22;20461;-72
2021/09/06 02:44:07;;;;;;;0.70;0.60;;;;;;;13.59;100.00;-11942.28;6250560;22;20383;-72
2021/09/06 02:46:35;;;;;;;0.70;0.60;;;;;;;13.52;100.00;-12771.56;6249460;22;20752;-72
2021/09/06 02:49:03;;;;;;;0.87;0.87;;;;;;;13.50;100.00;-13500.19;6249247;22;20453;-72
2021/09/06 02:51:30;;;;;;;5.17;1.53;;;;;;;13.50;100.00;-14080.19;6276651;22;20446;-72
2021/09/06 02:53:57;;;;;;;0.80;0.80;;;;;;;13.45;100.00;-14755.00;6249339;22;20430;-72
2021/09/06 02:56:24;;;;;;;0.70;0.60;;;;;;;13.65;100.00;-14967.59;6249705;22;20480;-72
2021/09/06 02:58:51;;;;;;;0.70;0.60;;;;;;;13.69;100.00;-14885.06;6250119;22;20711;-72
2021/09/06 03:01:18;;;;;;;0.70;0.60;;;;;;;13.72;100.00;-14547.66;6275978;22;20390;-72
2021/09/06 03:03:49;;;;;;;0.80;0.73;;;;;;;13.69;100.00;-14337.84;6249384;22;20401;-72
2021/09/06 03:06:16;;;;;;;0.70;0.60;;;;;;;13.65;100.00;-14125.34;6248392;22;20468;-72
2021/09/06 03:08:44;;;;;;;0.80;0.70;;;;;;;13.62;100.00;-13887.84;6224769;22;20426;-73
2021/09/06 03:11:11;;;;;;;0.70;0.60;;;;;;;13.63;100.00;-13628.22;6249213;22;20410;-72
2021/09/06 03:13:38;;;;;;;1.00;0.90;;;;;;;13.64;100.00;-13381.09;6249165;22;20427;-73
2021/09/06 03:16:06;;;;;;;1.10;1.00;;;;;;;13.66;100.00;-13045.94;6224473;22;20454;-72
2021/09/06 03:18:34;;;;;;;0.70;0.60;;;;;;;13.64;100.00;-12871.56;6249315;22;20480;-73
2021/09/06 03:21:25;;;;;;;0.70;0.60;;;;;;;13.61;100.00;-12674.34;6250490;22;20934;-72
2021/09/06 03:23:54;;;;;;;0.80;0.70;;;;;;;13.65;100.00;-12291.38;6224388;22;20963;-72
2021/09/06 03:26:24;;;;;;;0.70;0.60;;;;;;;13.68;100.00;-12175.63;6249451;22;20430;-72
2021/09/06 03:28:52;;;;;;;1.23;1.13;;;;;;;13.69;100.00;-12130.38;6246701;22;20412;-72
2021/09/06 03:31:21;;;;;;;0.70;0.60;;;;;;;13.69;100.00;-12084.94;6248777;22;20402;-73
2021/09/06 03:33:52;;;;;;;0.70;0.60;;;;;;;13.64;100.00;-12101.91;6249257;22;20400;-72
2021/09/06 03:36:20;;;;;;;0.70;0.60;;;;;;;13.66;100.00;-12051.69;6250027;22;20408;-73
2021/09/06 03:38:50;;;;;;;0.70;0.60;;;;;;;13.63;100.00;-12084.13;6249993;22;20432;-72
2021/09/06 03:41:19;;;;;;;0.70;0.60;;;;;;;13.63;100.00;-11995.78;6249664;22;20494;-72
2021/09/06 03:43:46;;;;;;;0.70;0.60;;;;;;;13.67;100.00;-11928.22;6248681;22;20457;-72
2021/09/06 03:46:12;;;;;;;0.90;0.90;;;;;;;13.63;100.00;-11925.13;6223707;22;20430;-73
2021/09/06 03:48:39;;;;;;;0.70;0.70;;;;;;;13.63;100.00;-11897.38;6248365;22;20729;-72
2021/09/06 03:51:08;;;;;;;0.70;0.70;;;;;;;13.65;100.00;-12069.28;6249585;22;20875;-72
2021/09/06 03:53:35;;;;;;;0.70;0.60;;;;;;;13.69;100.00;-12024.31;6249211;22;20426;-73
2021/09/06 03:56:06;;;;;;;1.23;1.13;;;;;;;13.70;100.00;-12231.47;6249636;22;20449;-72
2021/09/06 03:58:38;;;;;;;0.70;0.60;;;;;;;13.66;100.00;-12215.72;6248881;22;20861;-73
2021/09/06 04:01:05;;;;;;;0.70;0.60;;;;;;;13.61;100.00;-12119.19;6249096;22;20441;-72
2021/09/06 04:03:42;;;;;;;0.70;0.70;;;;;;;13.57;100.00;-12103.59;6249502;22;20416;-71
2021/09/06 04:06:09;;;;;;;1.30;1.20;;;;;;;13.52;100.00;-11976.78;6248545;22;20421;-72
2021/09/06 04:08:36;;;;;;;0.70;0.60;;;;;;;13.47;100.00;-11910.59;6250907;22;20461;-73
2021/09/06 04:11:03;;;;;;;0.70;0.70;;;;;;;13.43;100.00;-11781.44;6251670;22;20443;-72
2021/09/06 04:13:34;;;;;;;0.70;0.60;;;;;;;13.41;100.00;-11730.72;6251229;22;20479;-72
2021/09/06 04:16:02;;;;;;;0.70;0.60;;;;;;;13.43;100.00;-11614.84;6250403;22;20505;-72
2021/09/06 04:18:31;;;;;;;0.70;0.60;;;;;;;13.38;100.00;-11679.91;6250673;22;20402;-72
2021/09/06 04:21:01;;;;;;;0.70;0.60;;;;;;;13.37;100.00;-11672.19;6250855;22;20926;-71
2021/09/06 04:23:30;;;;;;;0.70;0.60;;;;;;;13.34;100.00;-11636.53;6250672;22;20903;-72
2021/09/06 04:26:03;;;;;;;0.70;0.60;;;;;;;13.30;100.00;-11661.25;6251311;22;20395;-71
2021/09/06 04:28:37;;;;;;;0.80;0.80;;;;;;;13.46;100.00;-11706.09;6227447;22;20404;-71
2021/09/06 04:31:05;;;;;;;0.70;0.60;;;;;;;13.42;100.00;-11753.50;6250561;22;20490;-72
2021/09/06 04:33:35;;;;;;;0.70;0.70;;;;;;;13.51;100.00;-11671.34;6250636;22;20399;-71
2021/09/06 04:36:02;;;;;;;0.93;0.70;;;;;;;13.53;100.00;-11648.94;6277690;22;20390;-71
2021/09/06 04:38:37;;;;;;;0.70;0.60;;;;;;;13.47;100.00;-11663.28;6250116;22;20529;-72
2021/09/06 04:41:05;;;;;;;0.90;0.90;;;;;;;13.43;100.00;-11698.16;6250792;22;20498;-72
2021/09/06 04:43:37;;;;;;;3.27;1.63;;;;;;;13.41;100.00;-11735.72;6249133;22;20409;-71
2021/09/06 04:46:06;;;;;;;0.70;0.60;;;;;;;13.44;100.00;-11693.19;6248702;22;20410;-72
2021/09/06 04:48:34;;;;;;;0.70;0.60;;;;;;;13.48;100.00;-11552.38;6250180;22;20972;-71
2021/09/06 04:51:02;;;;;;;0.70;0.60;;;;;;;13.41;100.00;-11657.56;6250147;22;20896;-70
2021/09/06 04:53:52;;;;;;;0.70;0.60;;;;;;;13.39;100.00;-11758.16;6230183;22;20441;-72
2021/09/06 04:56:23;;;;;;;0.70;0.70;;;;;;;13.33;100.00;-11729.72;6225388;22;20489;-70
2021/09/06 04:58:54;;;;;;;0.70;0.60;;;;;;;13.35;100.00;-11676.94;6251614;22;20457;-71
2021/09/06 05:01:23;;;;;;;0.70;0.70;;;;;;;13.35;100.00;-11646.72;6250346;22;20476;-72
2021/09/06 05:03:51;;;;;;;0.70;0.60;;;;;;;13.35;100.00;-11543.22;6277444;22;20388;-72
2021/09/06 05:06:18;;;;;;;0.70;0.70;;;;;;;13.37;100.00;-11409.81;6251177;22;20407;-71
2021/09/06 05:08:45;;;;;;;1.00;0.90;;;;;;;13.39;100.00;-11354.53;6277737;22;20448;-71
2021/09/06 05:11:13;;;;;;;0.70;0.70;;;;;;;13.37;100.00;-11354.25;6225728;22;20939;-71
2021/09/06 05:13:41;;;;;;;0.70;0.60;;;;;;;13.46;100.00;-11113.06;6250298;22;20438;-71
2021/09/06 05:16:10;;;;;;;0.70;0.60;;;;;;;13.54;100.00;-11073.59;6250361;22;20410;-71
2021/09/06 05:18:39;;;;;;;0.70;0.60;;;;;;;13.56;100.00;-11078.81;6224609;22;20410;-71
2021/09/06 05:21:06;;;;;;;0.70;0.60;;;;;;;13.58;100.00;-11033.59;6277551;22;20412;-71
2021/09/06 05:23:33;;;;;;;0.90;0.80;;;;;;;13.62;100.00;-10948.28;6248296;22;20422;-71
2021/09/06 05:26:00;;;;;;;0.90;0.90;;;;;;;13.66;100.00;-10830.00;6249640;22;20907;-71
2021/09/06 05:28:28;;;;;;;0.70;0.60;;;;;;;13.63;100.00;-10897.91;6250534;22;20825;-71
2021/09/06 05:30:55;;;;;;;0.77;0.70;;;;;;;13.70;100.00;-10827.91;6249181;22;20869;-71
2021/09/06 05:33:28;;;;;;;0.70;0.60;;;;;;;13.72;100.00;-10734.72;6226481;22;20401;-71
2021/09/06 05:35:55;;;;;;;0.70;0.60;;;;;;;13.73;100.00;-10545.44;6250134;22;20460;-71
2021/09/06 05:38:42;;;;;;;0.70;0.60;;;;;;;13.74;100.00;-10649.06;6250614;22;20503;-71
2021/09/06 05:41:35;;;;;;;0.70;0.60;;;;;;;13.84;100.00;-10496.06;6274314;22;20402;-71
2021/09/06 05:44:05;;;;;;;0.80;0.70;;;;;;;13.90;100.00;-10317.34;6250076;22;20406;-71
2021/09/06 05:46:33;;;;;;;0.70;0.60;;;;;;;13.97;100.00;-10300.38;6249820;22;20409;-71
2021/09/06 05:49:03;;;;;;;0.70;0.60;;;;;;;14.05;100.00;-10371.81;6249670;22;20407;-71
2021/09/06 05:51:32;;;;;;;0.70;0.60;;;;;;;14.13;100.00;-10584.88;6250289;22;20399;-70
2021/09/06 05:54:03;;;;;;;0.70;0.60;;;;;;;14.22;100.00;-10600.97;6250449;22;20419;-71
2021/09/06 05:56:31;;;;;;;0.70;0.57;;;;;;;14.33;100.00;-10501.03;6250206;22;20416;-71
2021/09/06 05:59:00;;;;;;;0.70;0.60;;;;;;;14.41;100.00;-10390.63;6250374;22;20408;-70
2021/09/06 06:01:30;;;;;;;0.70;0.70;;;;;;;14.49;100.00;-10421.78;6225290;22;20436;-72
2021/09/06 06:03:58;;;;;;;0.70;0.70;;;;;;;14.54;100.00;-10369.09;6250135;22;20435;-71
2021/09/06 06:06:32;;;;;;;0.70;0.60;;;;;;;14.63;100.00;-10354.81;6250081;22;20409;-70
2021/09/06 06:09:02;;;;;;;0.70;0.60;;;;;;;14.77;100.00;-10282.81;6249800;22;20424;-71
2021/09/06 06:11:30;;;;;;;0.70;0.60;;;;;;;14.91;100.00;-10172.94;6250429;22;20711;-71
2021/09/06 06:13:57;;;;;;;0.70;0.60;;;;;;;15.03;100.00;-10105.69;6249911;22;20501;-71
2021/09/06 06:16:24;;;;;;;3.13;0.90;;;;;;;15.16;100.00;-10051.25;6250047;22;20488;-71
2021/09/06 06:18:55;;;;;;;0.80;0.80;;;;;;;15.34;100.00;-10012.41;6250075;22;20410;-71
2021/09/06 06:21:24;;;;;;;0.70;0.60;;;;;;;15.54;100.00;-9801.47;6249996;22;20408;-72
2021/09/06 06:24:13;;;;;;;0.70;0.70;;;;;;;15.89;100.00;-9302.78;6276408;22;20493;-71
2021/09/06 06:26:49;;;;;;;0.70;0.70;;;;;;;16.08;100.00;-8244.22;6248536;22;20413;-71
2021/09/06 06:29:17;;;;;;;0.70;0.60;;;;;;;16.15;100.00;-7204.47;6249706;22;20434;-71
2021/09/06 06:31:44;;;;;;;0.70;0.70;;;;;;;16.37;100.00;-6202.69;6249749;22;20936;-71
2021/09/06 06:34:12;;;;;;;1.83;1.37;;;;;;;16.44;100.00;-5395.22;6250065;22;20408;-72
2021/09/06 06:36:40;;;;;;;0.70;0.70;;;;;;;16.46;100.00;-4226.56;6249423;22;20804;-75
2021/09/06 06:39:22;;;;;;;1.70;1.60;;;;;;;16.48;100.00;-3347.19;6249971;22;20422;-75
2021/09/06 06:41:53;;;;;;;0.70;0.70;;;;;;;16.65;100.00;-1943.16;6249418;22;20907;-75
2021/09/06 06:44:24;;;;;;;1.53;1.47;;;;;;;16.77;100.00;-744.19;6249476;22;20708;-75
2021/09/06 06:46:51;;;;;;;0.70;0.60;;;;;;;16.85;100.00;480.84;6249882;22;20413;-75
2021/09/06 06:49:20;;;;;;;0.80;0.70;;;;;;;16.92;100.00;1831.28;6249701;22;20883;-75
2021/09/06 06:51:47;;;;;;;0.80;0.80;;;;;;;16.96;100.00;3261.38;6249985;22;20400;-75
2021/09/06 06:54:15;;;;;;;0.80;0.80;;;;;;;17.06;100.00;4647.22;6249503;22;20421;-75
2021/09/06 06:56:43;;;;;;;0.70;0.67;;;;;;;17.29;100.00;6447.16;6248547;22;20431;-75
2021/09/06 06:59:11;;;;;;;0.70;0.70;;;;;;;17.39;100.00;8359.25;6249274;22;20467;-75
2021/09/06 07:01:39;;;;;;;0.70;0.60;;;;;;;17.64;100.00;10677.91;6224833;22;20785;-75
2021/09/06 07:04:07;;;;;;;0.73;0.73;;;;;;;17.86;100.00;12628.22;6249536;22;20414;-75
2021/09/06 07:06:38;;;;;;;0.80;0.70;;;;;;;17.99;100.00;14058.00;6249405;22;20462;-75
2021/09/06 07:09:05;;;;;;;1.33;1.23;;;;;;;18.26;100.00;15975.66;6223877;22;20449;-75
2021/09/06 07:11:34;;;;;;;0.80;0.60;;;;;;;18.44;100.00;17523.44;6248804;22;20408;-75
2021/09/06 07:14:04;;;;;;;0.90;0.87;;;;;;;18.50;100.00;18593.16;6224598;22;20793;-75
2021/09/06 07:16:31;;;;;;;0.80;0.70;;;;;;;18.67;100.00;19426.44;6275985;22;20852;-75
2021/09/06 07:18:58;;;;;;;0.70;0.60;;;;;;;19.00;100.00;20333.47;6247533;22;20420;-75
2021/09/06 07:21:28;;;;;;;0.70;0.60;;;;;;;18.99;100.00;19942.19;6248925;22;20468;-75
2021/09/06 07:23:55;;;;;;;0.80;0.70;;;;;;;19.31;100.00;19710.59;6224309;22;20431;-75
2021/09/06 07:26:22;;;;;;;0.80;0.70;;;;;;;19.43;100.00;15954.53;6248586;22;20411;-75
2021/09/06 07:28:54;;;;;;;1.03;0.90;;;;;;;19.77;100.00;9120.47;6249162;22;20456;-75
2021/09/06 07:31:23;;;;;;;0.90;0.80;;;;;;;20.00;100.00;-10103.56;6249627;22;20733;-75
2021/09/06 07:33:50;;;;;;;0.90;0.90;;;;;;;20.30;100.00;-21231.53;6248956;22;20461;-75
2021/09/06 07:36:18;;;;;;;0.80;0.80;;;;;;;20.80;100.00;-21245.06;6276536;22;20362;-75
2021/09/06 07:38:46;;;;;;;1.10;1.00;;;;;;;21.12;100.00;-21253.66;6224302;22;20419;-75
2021/09/06 07:41:13;;;;;;;1.50;1.40;;;;;;;21.01;100.00;-21250.66;6249261;22;20391;-75
2021/09/06 07:43:44;;;;;;;0.80;0.80;;;;;;;21.16;100.00;-21254.59;6249444;22;20413;-75
2021/09/06 07:46:11;;;;;;;8.97;1.13;;;;;;;21.49;100.00;-21263.47;6248930;22;20398;-75
2021/09/06 07:48:39;;;;;;;1.87;1.23;;;;;;;21.67;100.00;-21268.38;6249350;22;20479;-75
2021/09/06 07:51:07;;;;;;;1.03;0.93;;;;;;;22.12;100.00;-21280.25;6249538;22;20489;-75
2021/09/06 07:53:34;;;;;;;1.63;1.53;;;;;;;22.39;100.00;-21287.47;6248809;22;20429;-75
2021/09/06 07:56:02;;;;;;;0.80;0.80;;;;;;;22.47;100.00;-21289.63;6248465;22;20791;-75
2021/09/06 07:58:31;;;;;;;0.80;0.70;;;;;;;22.38;100.00;-21287.19;6249680;22;20399;-74
2021/09/06 08:00:58;;;;;;;0.80;0.80;;;;;;;22.44;100.00;-21288.81;6249709;22;20721;-75
2021/09/06 08:03:27;;;;;;;0.70;0.60;;;;;;;22.75;100.00;-21297.13;6248837;22;20381;-75
2021/09/06 08:05:56;;;;;;;0.80;0.70;;;;;;;22.22;100.00;-21282.97;6249281;22;20413;-75
2021/09/06 08:08:24;;;;;;;0.80;0.70;;;;;;;22.72;100.00;-21296.31;6249157;22;20452;-75
2021/09/06 08:10:53;;;;;;;1.57;0.97;;;;;;;23.03;100.00;-21304.63;6224258;22;20385;-74
2021/09/06 08:13:33;;;;;;;2.80;2.30;;;;;;;23.43;100.00;-21315.22;6249122;22;20415;-75
2021/09/06 08:16:00;;;;;;;0.97;0.90;;;;;;;22.56;100.00;-21291.94;6249344;22;20428;-75
2021/09/06 08:18:28;;;;;;;0.80;0.70;;;;;;;22.32;100.00;-21285.56;6249616;22;20395;-75
2021/09/06 08:20:56;;;;;;;1.73;1.00;;;;;;;22.61;100.00;-21293.44;6248114;22;20384;-75
2021/09/06 08:23:24;;;;;;;0.90;0.87;;;;;;;22.67;100.00;-21294.94;6248773;22;20488;-75
2021/09/06 08:25:58;;;;;;;1.40;1.30;;;;;;;22.60;100.00;-21293.19;6247756;22;20457;-74
2021/09/06 08:28:25;;;;;;;0.77;0.70;;;;;;;22.64;100.00;-21294.28;6249404;22;20435;-75
2021/09/06 08:30:52;;;;;;;1.03;0.90;;;;;;;23.08;100.00;-21305.97;6249149;22;20406;-75
2021/09/06 08:33:22;;;;;;;0.80;0.70;;;;;;;23.39;100.00;-21314.28;6224265;22;20494;-75
2021/09/06 08:35:49;;;;;;;0.80;0.70;;;;;;;23.44;100.00;-21315.50;6249660;22;20377;-75
2021/09/06 08:38:19;;;;;;;0.90;0.70;;;;;;;23.62;100.00;-21320.38;6249556;22;20918;-75
2021/09/06 08:40:51;;;;;;;1.10;1.00;;;;;;;23.82;100.00;-21325.69;6248304;22;20403;-75
2021/09/06 08:43:22;;;;;;;0.80;0.80;;;;;;;24.43;100.00;-21341.84;6248860;22;20403;-75
2021/09/06 08:45:49;;;;;;;1.00;0.90;;;;;;;24.79;100.00;-21351.50;6249012;22;20741;-75
2021/09/06 08:48:17;;;;;;;0.87;0.70;;;;;;;25.34;100.00;-21365.88;6249314;22;20508;-74
2021/09/06 08:50:44;;;;;;;0.70;0.60;;;;;;;24.99;100.00;-21356.78;6248640;22;20425;-75
2021/09/06 08:53:11;;;;;;;1.80;1.70;;;;;;;26.31;100.00;-21391.75;6277255;22;20414;-75
2021/09/06 08:55:42;;;;;;;1.43;1.13;;;;;;;26.71;100.00;-21402.31;6250529;22;20433;-75
2021/09/06 08:58:32;;;;;;;0.90;0.73;;;;;;;28.39;100.00;-21446.91;6250704;22;20457;-75
2021/09/06 09:01:00;;;;;;;0.77;0.60;;;;;;;27.48;100.00;-21422.72;6250197;22;20742;-75
2021/09/06 09:03:34;;;;;;;0.70;0.50;;;;;;;27.47;100.00;-21422.44;6226922;22;20434;-75
2021/09/06 09:06:38;;;;;;;1.83;1.10;;;;;;;28.17;100.00;-21440.94;6257711;22;20406;-75
2021/09/06 09:09:37;;;;;;;1.00;0.70;;;;;;;28.05;100.00;-21437.72;6244773;22;20443;-73
2021/09/06 09:12:29;;;;;;;1.20;0.93;;;;;;;28.79;100.00;-21457.28;6250471;22;20492;-73
2021/09/06 09:15:11;;;;;;;2.43;1.53;;;;;;;28.31;100.00;-21444.72;6248806;22;20917;-72
2021/09/06 09:18:01;;;;;;;0.90;0.73;;;;;;;29.12;100.00;-21466.03;6250044;22;20474;-72
2021/09/06 09:20:42;;;;;;;0.80;0.60;;;;;;;29.62;100.00;-21479.13;6249764;22;20457;-73
2021/09/06 09:23:41;;;;;;;0.80;0.53;;;;;;;28.98;100.00;-21462.25;6276809;22;20423;-73
2021/09/06 09:26:16;;;;;;;1.03;0.93;;;;;;;29.57;100.00;-21477.91;6249990;22;20482;-73
2021/09/06 09:29:08;;;;;;;2.20;1.63;;;;;;;29.48;100.00;-21475.47;6277819;22;20421;-73
2021/09/06 09:32:13;;;;;;;0.93;0.83;;;;;;;29.51;100.00;-21476.41;6250631;22;20406;-73
2021/09/06 09:35:14;;;;;;;1.40;0.80;;;;;;;30.14;100.00;-21492.84;6250504;22;20405;-73
2021/09/06 09:37:41;;;;;;;1.60;1.03;;;;;;;29.75;100.00;-21482.75;6277294;22;20427;-73
2021/09/06 09:40:11;;;;;;;1.30;1.07;;;;;;;29.53;100.00;-21476.81;6276850;22;20386;-73
2021/09/06 09:42:46;;;;;;;1.23;1.00;;;;;;;29.68;100.00;-21480.72;6277542;22;20893;-73
2021/09/06 09:45:22;;;;;;;1.93;1.43;;;;;;;30.54;100.00;-21503.47;6250737;22;20417;-73
2021/09/06 09:48:01;;;;;;;1.00;0.90;;;;;;;31.07;100.00;-21517.44;6228014;22;20460;-73
2021/09/06 09:50:31;;;;;;;1.30;1.17;;;;;;;30.36;100.00;-21498.63;6277617;22;20878;-73
2021/09/06 09:52:58;;;;;;;1.10;0.80;;;;;;;29.51;100.00;-21476.41;6277494;22;20407;-73
2021/09/06 09:55:27;;;;;;;1.13;1.03;;;;;;;30.37;100.00;-21499.03;6276804;22;20441;-73
2021/09/06 09:57:55;;;;;;;1.90;1.37;;;;;;;30.93;100.00;-21513.81;6276787;22;20698;-73
2021/09/06 10:00:26;;;;;;;1.57;0.83;;;;;;;30.76;100.00;-21509.25;6277065;22;20386;-73
2021/09/06 10:03:00;;;;;;;1.17;0.70;;;;;;;31.51;100.00;-21529.00;6277641;22;20418;-73
2021/09/06 10:05:30;;;;;;;1.87;1.30;;;;;;;32.29;100.00;-21549.38;6277594;22;20366;-73
2021/09/06 10:08:01;;;;;;;0.90;0.70;;;;;;;30.98;100.00;-21515.16;6250054;22;20433;-73
2021/09/06 10:10:35;;;;;;;2.27;1.37;;;;;;;30.29;100.00;-21496.88;6276773;22;20402;-73
2021/09/06 10:13:06;;;;;;;1.00;0.83;;;;;;;30.76;100.00;-21509.25;6277092;22;20769;-73
2021/09/06 10:15:36;;;;;;;2.97;1.73;;;;;;;31.43;100.00;-21526.84;6276450;22;20367;-73
2021/09/06 10:18:17;;;;;;;2.07;1.57;;;;;;;30.70;100.00;-21507.75;6249402;22;20406;-73
2021/09/06 10:20:48;;;;;;;2.03;0.90;;;;;;;30.85;100.00;-21511.53;6251624;22;20445;-73
2021/09/06 10:23:19;;;;;;;1.60;1.10;;;;;;;30.57;100.00;-21504.28;6277448;22;20613;-73
2021/09/06 10:25:47;;;;;;;0.80;0.60;;;;;;;30.74;100.00;-21508.84;6249933;22;20473;-73
2021/09/06 10:28:15;;;;;;;2.13;1.13;;;;;;;30.42;100.00;-21500.25;6276726;22;20438;-73
2021/09/06 10:30:46;;;;;;;1.77;1.23;;;;;;;31.18;100.00;-21520.41;6277228;22;20473;-73
2021/09/06 10:33:24;;;;;;;0.93;0.80;;;;;;;32.06;100.00;-21543.50;6276263;22;20375;-73
2021/09/06 10:36:10;;;;;;;2.03;1.07;;;;;;;31.87;100.00;-21538.41;6249480;22;20467;-73
2021/09/06 10:38:39;;;;;;;1.07;0.87;;;;;;;31.42;100.00;-21526.59;6276862;22;20452;-73
2021/09/06 10:41:13;;;;;;;1.83;1.30;;;;;;;32.15;100.00;-21545.91;6249701;22;20490;-73
2021/09/06 10:43:45;;;;;;;0.80;0.60;;;;;;;31.36;100.00;-21524.97;6225706;22;20700;-73
2021/09/06 10:46:15;;;;;;;2.07;1.20;;;;;;;31.32;100.00;-21523.91;6249400;22;20406;-73
2021/09/06 10:48:43;;;;;;;2.40;1.17;;;;;;;31.01;100.00;-21515.84;6276338;22;20415;-73
2021/09/06 10:51:10;;;;;;;1.10;0.80;;;;;;;31.50;100.00;-21528.88;6276322;22;20393;-73
2021/09/06 10:53:38;;;;;;;1.97;1.30;;;;;;;31.45;100.00;-21527.38;6276418;22;20406;-74
2021/09/06 10:56:08;;;;;;;4.70;1.00;;;;;;;30.80;100.00;-21510.47;6275756;22;20413;-73
2021/09/06 10:58:37;;;;;;;0.90;0.60;;;;;;;31.50;100.00;-21528.88;6249803;22;20406;-73
2021/09/06 11:01:07;;;;;;;2.03;0.87;;;;;;;31.31;100.00;-21523.63;6276261;22;20386;-73
2021/09/06 11:03:38;;;;;;;4.00;1.53;;;;;;;31.49;100.00;-21528.59;6225153;22;20401;-73
2021/09/06 11:06:07;;;;;;;1.73;1.03;;;;;;;31.30;100.00;-21523.50;6249101;22;20711;-73
2021/09/06 11:08:37;;;;;;;1.80;1.20;;;;;;;31.44;100.00;-21527.13;6275615;22;20497;-73
2021/09/06 11:11:07;;;;;;;1.63;1.53;;;;;;;31.42;100.00;-21526.72;6248068;22;20375;-73
2021/09/06 11:13:36;;;;;;;1.17;0.93;;;;;;;31.14;100.00;-21519.19;6275690;22;20372;-74
2021/09/06 11:16:06;;;;;;;1.27;1.17;;;;;;;30.49;100.00;-21502.13;6276321;22;20380;-73
2021/09/06 11:18:38;;;;;;;1.47;1.37;;;;;;;30.91;100.00;-21513.16;6275961;22;20364;-74
2021/09/06 11:21:06;;;;;;;1.30;0.93;;;;;;;30.75;100.00;-21508.97;6277023;22;20371;-73
2021/09/06 11:23:36;;;;;;;2.50;0.70;;;;;;;30.72;100.00;-21508.31;6276756;22;20407;-73
2021/09/06 11:26:07;;;;;;;1.70;1.37;;;;;;;31.63;100.00;-21532.22;6249241;22;20376;-73
2021/09/06 11:28:42;;;;;;;1.03;0.83;;;;;;;31.27;100.00;-21522.81;6276648;22;20732;-74
2021/09/06 11:31:16;;;;;;;1.83;1.57;;;;;;;30.48;100.00;-21501.84;6249045;22;20421;-73
2021/09/06 11:33:44;;;;;;;1.10;0.83;;;;;;;31.33;100.00;-21524.28;6224431;22;20486;-73
2021/09/06 11:36:15;;;;;;;1.47;0.70;;;;;;;31.66;100.00;-21533.03;6249641;22;20497;-73